createdAt,value
2024-05-09T00:00:43.552Z,92.96
2024-05-09T00:03:11.552Z,91.69
2024-05-09T00:05:40.315Z,93.19
2024-05-09T00:08:07.155Z,93.96
2024-05-09T00:10:37.399Z,94.45
2024-05-09T00:13:05.911Z,95.69
2024-05-09T00:15:33.481Z,96.51
2024-05-09T00:18:00.384Z,95.19
2024-05-09T00:20:35.287Z,96.25
2024-05-09T00:23:06.803Z,93.73
2024-05-09T00:25:33.588Z,96.08
2024-05-09T00:28:00.098Z,94.19
2024-05-09T00:30:33.522Z,91.50
2024-05-09T00:33:02.793Z,94.75
2024-05-09T00:35:29.769Z,95.21
2024-05-09T00:37:56.493Z,95.57
2024-05-09T00:40:31.088Z,96.94
2024-05-09T00:43:05.365Z,97.45
2024-05-09T00:45:31.871Z,97.17
2024-05-09T00:47:59.102Z,95.47
2024-05-09T00:50:33.793Z,97.11
2024-05-09T00:53:03.221Z,97.18
2024-05-09T00:55:30.034Z,96.78
2024-05-09T00:57:56.518Z,97.44
2024-05-09T01:00:31.404Z,98.68
2024-05-09T01:03:04.902Z,100.00
2024-05-09T01:05:32.414Z,98.09
2024-05-09T01:07:59.054Z,97.66
2024-05-09T01:10:33.437Z,100.00
2024-05-09T01:13:01.688Z,100.00
2024-05-09T01:15:28.204Z,100.00
2024-05-09T01:17:56.314Z,100.00
2024-05-09T01:20:32.017Z,100.00
2024-05-09T01:23:06.863Z,100.00
2024-05-09T01:25:33.454Z,100.00
2024-05-09T01:27:59.954Z,100.00
2024-05-09T01:30:33.357Z,100.00
2024-05-09T01:33:02.943Z,100.00
2024-05-09T01:35:29.709Z,100.00
2024-05-09T01:37:56.295Z,100.00
2024-05-09T01:40:32.694Z,100.00
2024-05-09T01:43:03.344Z,100.00
2024-05-09T01:45:29.831Z,100.00
2024-05-09T01:47:56.509Z,100.00
2024-05-09T01:50:34.277Z,100.00
2024-05-09T01:53:05.594Z,100.00
2024-05-09T01:55:32.226Z,100.00
2024-05-09T01:57:58.724Z,100.00
2024-05-09T02:00:36.800Z,100.00
2024-05-09T02:03:13.353Z,100.00
2024-05-09T02:05:42.847Z,100.00
2024-05-09T02:08:12.419Z,100.00
2024-05-09T02:10:38.964Z,100.00
2024-05-09T02:13:06.104Z,100.00
2024-05-09T02:15:32.585Z,100.00
2024-05-09T02:17:59.213Z,100.00
2024-05-09T02:20:33.697Z,100.00
2024-05-09T02:23:04.311Z,100.00
2024-05-09T02:25:31.432Z,100.00
2024-05-09T02:27:57.948Z,100.00
2024-05-09T02:30:31.153Z,100.00
2024-05-09T02:33:05.804Z,100.00
2024-05-09T02:35:32.888Z,100.00
2024-05-09T02:37:59.773Z,100.00
2024-05-09T02:40:35.067Z,100.00
2024-05-09T02:43:04.166Z,100.00
2024-05-09T02:45:30.721Z,100.00
2024-05-09T02:47:57.572Z,100.00
2024-05-09T02:50:33.092Z,100.00
2024-05-09T02:53:04.510Z,100.00
2024-05-09T02:55:31.127Z,100.00
2024-05-09T02:57:57.732Z,100.00
2024-05-09T03:00:30.092Z,100.00
2024-05-09T03:03:04.400Z,100.00
2024-05-09T03:05:31.249Z,100.00
2024-05-09T03:07:57.905Z,100.00
2024-05-09T03:10:28.578Z,100.00
2024-05-09T03:12:55.795Z,100.00
2024-05-09T03:15:22.735Z,100.00
2024-05-09T03:17:49.563Z,100.00
2024-05-09T03:20:23.319Z,100.00
2024-05-09T03:22:52.726Z,100.00
2024-05-09T03:25:20.607Z,100.00
2024-05-09T03:27:47.108Z,100.00
2024-05-09T03:30:25.928Z,100.00
2024-05-09T03:33:00.293Z,100.00
2024-05-09T03:35:26.955Z,100.00
2024-05-09T03:37:53.539Z,100.00
2024-05-09T03:40:23.823Z,100.00
2024-05-09T03:42:53.087Z,100.00
2024-05-09T03:45:19.633Z,100.00
2024-05-09T03:47:46.400Z,100.00
2024-05-09T03:50:21.917Z,100.00
2024-05-09T03:52:52.523Z,100.00
2024-05-09T03:55:19.113Z,100.00
2024-05-09T03:57:45.622Z,100.00
2024-05-09T04:00:18.027Z,100.00
2024-05-09T04:02:52.374Z,100.00
2024-05-09T04:05:19.359Z,100.00
2024-05-09T04:07:46.010Z,100.00
2024-05-09T04:10:21.027Z,100.00
2024-05-09T04:12:54.499Z,100.00
2024-05-09T04:15:21.046Z,100.00
2024-05-09T04:17:51.372Z,100.00
2024-05-09T04:20:24.810Z,100.00
2024-05-09T04:23:00.608Z,100.00
2024-05-09T04:25:27.196Z,100.00
2024-05-09T04:27:55.915Z,100.00
2024-05-09T04:30:33.759Z,100.00
2024-05-09T04:33:04.886Z,100.00
2024-05-09T04:35:31.686Z,100.00
2024-05-09T04:37:58.291Z,100.00
2024-05-09T04:40:31.625Z,100.00
2024-05-09T04:43:01.538Z,100.00
2024-05-09T04:45:28.019Z,100.00
2024-05-09T04:47:54.822Z,100.00
2024-05-09T04:50:29.969Z,100.00
2024-05-09T04:53:02.922Z,100.00
2024-05-09T04:55:29.496Z,100.00
2024-05-09T04:57:56.013Z,100.00
2024-05-09T05:00:31.799Z,100.00
2024-05-09T05:03:05.926Z,97.65
2024-05-09T05:05:32.833Z,94.92
2024-05-09T05:07:59.470Z,93.39
2024-05-09T05:10:33.560Z,93.33
2024-05-09T05:13:22.830Z,92.69
2024-05-09T05:15:50.559Z,91.43
2024-05-09T05:18:17.313Z,89.36
2024-05-09T05:20:44.201Z,88.30
2024-05-09T05:23:11.952Z,86.44
2024-05-09T05:25:38.528Z,85.38
2024-05-09T05:28:05.175Z,84.09
2024-05-09T05:30:34.716Z,86.54
2024-05-09T05:33:02.095Z,87.72
2024-05-09T05:35:28.914Z,86.94
2024-05-09T05:37:55.606Z,90.00
2024-05-09T05:40:28.651Z,89.35
2024-05-09T05:43:02.698Z,88.89
2024-05-09T05:45:29.214Z,87.58
2024-05-09T05:47:55.969Z,87.93
2024-05-09T05:50:28.015Z,87.85
2024-05-09T05:53:01.812Z,85.01
2024-05-09T05:55:28.391Z,86.82
2024-05-09T05:57:54.884Z,87.65
2024-05-09T06:00:29.400Z,85.94
2024-05-09T06:03:02.173Z,84.68
2024-05-09T06:05:29.027Z,86.35
2024-05-09T06:07:55.747Z,85.79
2024-05-09T06:10:26.301Z,85.20
2024-05-09T06:13:01.300Z,86.10
2024-05-09T06:15:27.814Z,87.85
2024-05-09T06:17:54.555Z,85.07
2024-05-09T06:20:31.236Z,85.86
2024-05-09T06:23:03.110Z,82.51
2024-05-09T06:25:29.704Z,82.52
2024-05-09T06:27:56.188Z,82.40
2024-05-09T06:30:30.060Z,80.42
2024-05-09T06:33:04.551Z,82.83
2024-05-09T06:35:31.524Z,80.67
2024-05-09T06:37:58.247Z,83.16
2024-05-09T06:40:29.445Z,76.90
2024-05-09T06:43:01.944Z,78.81
2024-05-09T06:45:28.434Z,77.90
2024-05-09T06:47:55.080Z,77.70
2024-05-09T06:50:24.416Z,75.50
2024-05-09T06:52:54.558Z,75.84
2024-05-09T06:55:21.044Z,77.67
2024-05-09T06:57:47.508Z,72.79
2024-05-09T07:00:22.698Z,72.74
2024-05-09T07:02:56.903Z,70.92
2024-05-09T07:05:23.904Z,74.19
2024-05-09T07:07:50.491Z,71.84
2024-05-09T07:10:22.159Z,73.75
2024-05-09T07:12:55.308Z,70.83
2024-05-09T07:15:21.817Z,75.46
2024-05-09T07:17:48.618Z,67.79
2024-05-09T07:20:22.955Z,71.38
2024-05-09T07:22:54.412Z,64.01
2024-05-09T07:25:20.916Z,65.47
2024-05-09T07:27:47.453Z,64.75
2024-05-09T07:30:20.341Z,64.99
2024-05-09T07:32:53.654Z,61.56
2024-05-09T07:35:20.363Z,64.81
2024-05-09T07:37:47.079Z,64.12
2024-05-09T07:40:21.292Z,64.65
2024-05-09T07:42:54.260Z,62.99
2024-05-09T07:45:39.880Z,61.24
2024-05-09T07:53:36.527Z,65.87
2024-05-09T07:55:56.021Z,61.04
2024-05-09T07:58:27.189Z,66.45
2024-05-09T08:00:54.241Z,67.59
2024-05-09T08:03:20.875Z,67.58
2024-05-09T08:05:47.514Z,63.67
2024-05-09T08:08:14.032Z,68.50
2024-05-09T08:10:40.658Z,66.33
2024-05-09T08:13:07.354Z,63.47
2024-05-09T08:15:33.970Z,64.19
2024-05-09T08:18:00.815Z,67.71
2024-05-09T08:20:31.295Z,63.43
2024-05-09T08:23:01.587Z,65.02
2024-05-09T08:25:28.283Z,65.28
2024-05-09T08:27:54.868Z,61.97
2024-05-09T08:30:29.070Z,60.44
2024-05-09T08:32:59.913Z,61.85
2024-05-09T08:35:26.603Z,62.90
2024-05-09T08:37:53.624Z,65.75
2024-05-09T08:40:28.113Z,64.31
2024-05-09T08:43:00.750Z,63.20
2024-05-09T08:45:27.338Z,65.45
2024-05-09T08:47:53.996Z,66.83
2024-05-09T08:50:31.427Z,65.52
2024-05-09T08:53:04.265Z,63.24
2024-05-09T08:55:30.774Z,61.20
2024-05-09T08:57:57.312Z,60.36
2024-05-09T09:00:33.720Z,58.37
2024-05-09T09:03:04.416Z,57.12
2024-05-09T09:05:31.209Z,59.44
2024-05-09T09:07:57.882Z,61.11
2024-05-09T09:10:29.932Z,59.86
2024-05-09T09:12:59.542Z,62.18
2024-05-09T09:15:26.078Z,62.12
2024-05-09T09:17:59.195Z,60.93
2024-05-09T09:20:35.500Z,58.16
2024-05-09T09:23:03.388Z,64.41
2024-05-09T09:25:29.990Z,67.71
2024-05-09T09:27:57.589Z,65.32
2024-05-09T09:30:34.570Z,63.59
2024-05-09T09:33:04.282Z,63.52
2024-05-09T09:35:30.950Z,63.45
2024-05-09T09:37:57.451Z,65.50
2024-05-09T09:40:32.089Z,65.32
2024-05-09T09:43:00.852Z,65.12
2024-05-09T09:45:30.604Z,64.40
2024-05-09T09:47:57.517Z,65.09
2024-05-09T09:50:31.718Z,68.17
2024-05-09T09:53:01.375Z,64.10
2024-05-09T09:55:28.463Z,64.16
2024-05-09T09:57:55.582Z,66.29
2024-05-09T10:00:27.448Z,69.99
2024-05-09T10:02:59.040Z,71.56
2024-05-09T10:05:25.929Z,65.97
2024-05-09T10:07:52.617Z,61.54
2024-05-09T10:10:31.851Z,59.35
2024-05-09T10:13:05.718Z,60.25
2024-05-09T10:15:48.057Z,57.52
2024-05-09T10:18:15.025Z,58.70
2024-05-09T10:20:45.131Z,64.87
2024-05-09T10:23:27.458Z,63.37
2024-05-09T10:25:57.356Z,63.99
2024-05-09T10:28:30.645Z,64.42
2024-05-09T10:31:06.854Z,61.37
2024-05-09T10:33:40.221Z,62.18
2024-05-09T10:36:33.091Z,62.46
2024-05-09T10:38:59.625Z,60.73
2024-05-09T10:41:26.114Z,63.05
2024-05-09T10:43:52.592Z,64.83
2024-05-09T10:46:19.501Z,58.19
2024-05-09T10:48:46.744Z,60.98
2024-05-09T10:51:13.345Z,57.58
2024-05-09T10:53:40.308Z,58.77
2024-05-09T10:56:06.842Z,52.68
2024-05-09T10:58:33.350Z,55.06
2024-05-09T11:01:01.187Z,59.23
2024-05-09T11:03:28.989Z,60.07
2024-05-09T11:05:55.989Z,61.17
2024-05-09T11:08:22.954Z,62.31
2024-05-09T11:10:50.805Z,61.88
2024-05-09T11:13:29.914Z,60.29
2024-05-09T11:15:56.551Z,62.05
2024-05-09T11:18:27.875Z,61.74
2024-05-09T11:20:56.062Z,56.62
2024-05-09T11:23:22.994Z,56.05
2024-05-09T11:25:49.914Z,58.61
2024-05-09T11:28:17.444Z,57.18
2024-05-09T11:30:44.094Z,62.01
2024-05-09T11:33:14.320Z,57.11
2024-05-09T11:35:41.037Z,59.32
2024-05-09T11:38:07.514Z,59.77
2024-05-09T11:40:34.698Z,60.09
2024-05-09T11:43:01.626Z,62.59
2024-05-09T11:45:28.325Z,61.20
2024-05-09T11:47:54.953Z,61.16
2024-05-09T11:50:27.289Z,61.91
2024-05-09T11:52:58.975Z,60.01
2024-05-09T11:55:28.126Z,62.14
2024-05-09T11:57:55.150Z,56.60
2024-05-09T12:02:58.870Z,56.42
2024-05-09T12:05:25.631Z,50.86
2024-05-09T12:07:52.450Z,56.40
2024-05-09T12:10:22.449Z,53.49
2024-05-09T12:12:53.432Z,52.96
2024-05-09T12:15:19.953Z,54.54
2024-05-09T12:17:49.480Z,52.80
2024-05-09T12:20:25.052Z,54.01
2024-05-09T12:22:55.133Z,55.98
2024-05-09T12:25:21.667Z,55.46
2024-05-09T12:27:48.226Z,53.60
2024-05-09T12:30:20.916Z,53.16
2024-05-09T12:32:55.373Z,52.03
2024-05-09T12:35:21.939Z,51.63
2024-05-09T12:37:48.485Z,52.42
2024-05-09T12:40:22.945Z,50.37
2024-05-09T12:42:57.866Z,53.11
2024-05-09T12:45:24.390Z,54.71
2024-05-09T12:47:50.937Z,53.91
2024-05-09T12:50:25.118Z,55.57
2024-05-09T12:52:58.008Z,55.69
2024-05-09T12:55:24.740Z,54.35
2024-05-09T12:57:51.353Z,55.35
2024-05-09T13:00:23.996Z,55.63
2024-05-09T13:02:57.645Z,55.28
2024-05-09T13:05:24.591Z,53.00
2024-05-09T13:07:51.252Z,50.30
2024-05-09T13:10:25.570Z,53.27
2024-05-09T13:12:58.079Z,53.15
2024-05-09T13:15:24.616Z,49.68
2024-05-09T13:17:51.135Z,50.60
2024-05-09T13:20:26.090Z,51.19
2024-05-09T13:22:58.438Z,49.74
2024-05-09T13:25:24.983Z,50.51
2024-05-09T13:27:51.511Z,49.45
2024-05-09T13:30:26.284Z,48.06
2024-05-09T13:33:01.055Z,48.33
2024-05-09T13:35:27.846Z,48.25
2024-05-09T13:37:54.354Z,50.49
2024-05-09T13:40:29.879Z,50.76
2024-05-09T13:43:01.896Z,50.77
2024-05-09T13:45:28.563Z,53.34
2024-05-09T13:47:55.175Z,52.78
2024-05-09T13:50:30.936Z,53.65
2024-05-09T13:53:01.473Z,54.86
2024-05-09T13:55:28.064Z,55.86
2024-05-09T13:57:55.360Z,53.31
2024-05-09T14:00:37.394Z,49.83
2024-05-09T14:03:08.649Z,50.74
2024-05-09T14:05:35.538Z,51.64
2024-05-09T14:08:02.180Z,51.57
2024-05-09T14:10:31.135Z,52.37
2024-05-09T14:12:58.741Z,54.57
2024-05-09T14:15:25.341Z,54.63
2024-05-09T14:17:51.907Z,53.91
2024-05-09T14:20:28.249Z,54.53
2024-05-09T14:22:57.996Z,57.31
2024-05-09T14:25:26.586Z,55.16
2024-05-09T14:27:53.324Z,57.32
2024-05-09T14:30:29.585Z,57.94
2024-05-09T14:33:01.300Z,56.73
2024-05-09T14:35:28.070Z,60.05
2024-05-09T14:37:54.586Z,55.07
2024-05-09T14:40:35.375Z,56.24
2024-05-09T14:43:07.361Z,58.34
2024-05-09T14:45:34.645Z,59.93
2024-05-09T14:48:01.501Z,56.05
2024-05-09T14:50:35.075Z,51.88
2024-05-09T14:53:05.832Z,48.99
2024-05-09T14:55:35.476Z,52.85
2024-05-09T14:58:02.683Z,51.39
2024-05-09T15:00:33.557Z,51.73
2024-05-09T15:03:03.054Z,52.45
2024-05-09T15:05:30.086Z,52.47
2024-05-09T15:07:56.963Z,51.09
2024-05-09T15:10:31.535Z,52.68
2024-05-09T15:13:01.853Z,48.97
2024-05-09T15:15:28.375Z,48.40
2024-05-09T15:17:54.992Z,50.78
2024-05-09T15:20:30.383Z,52.82
2024-05-09T15:23:01.038Z,51.98
2024-05-09T15:25:27.708Z,52.56
2024-05-09T15:27:54.552Z,56.46
2024-05-09T15:30:29.511Z,54.25
2024-05-09T15:32:58.436Z,53.28
2024-05-09T15:35:24.947Z,56.33
2024-05-09T15:37:51.448Z,54.46
2024-05-09T15:40:26.361Z,55.17
2024-05-09T15:43:02.007Z,55.68
2024-05-09T15:45:29.298Z,58.66
2024-05-09T15:47:56.238Z,54.21
2024-05-09T15:50:32.321Z,53.98
2024-05-09T15:53:04.181Z,53.51
2024-05-09T15:55:33.754Z,56.06
2024-05-09T15:58:00.858Z,54.17
2024-05-09T16:00:36.499Z,53.97
2024-05-09T16:03:06.734Z,53.94
2024-05-09T16:05:33.551Z,54.00
2024-05-09T16:08:00.244Z,58.21
2024-05-09T16:10:32.359Z,55.80
2024-05-09T16:13:00.650Z,58.17
2024-05-09T16:15:27.299Z,59.04
2024-05-09T16:17:54.037Z,57.05
2024-05-09T16:20:33.269Z,59.64
2024-05-09T16:23:05.067Z,59.40
2024-05-09T16:25:31.580Z,56.01
2024-05-09T16:31:27.203Z,56.50
2024-05-09T16:33:53.838Z,54.12
2024-05-09T16:36:20.398Z,55.08
2024-05-09T16:38:46.882Z,58.47
2024-05-09T16:41:15.364Z,59.28
2024-05-09T16:43:41.869Z,61.27
2024-05-09T16:46:08.986Z,62.09
2024-05-09T16:48:36.406Z,63.09
2024-05-09T16:51:02.916Z,64.72
2024-05-09T16:53:29.415Z,63.85
2024-05-09T16:55:55.895Z,62.16
2024-05-09T16:58:22.562Z,63.24
2024-05-09T17:00:49.981Z,65.97
2024-05-09T17:03:17.028Z,65.50
2024-05-09T17:05:45.594Z,67.39
2024-05-09T17:08:12.730Z,69.01
2024-05-09T17:10:39.307Z,68.47
2024-05-09T17:13:07.463Z,72.07
2024-05-09T17:15:35.248Z,71.83
2024-05-09T17:18:02.263Z,71.78
2024-05-09T17:20:33.566Z,72.69
2024-05-09T17:23:02.847Z,75.81
2024-05-09T17:25:29.576Z,76.54
2024-05-09T17:27:56.598Z,75.02
2024-05-09T17:30:28.991Z,74.97
2024-05-09T17:33:01.857Z,77.09
2024-05-09T17:35:28.577Z,75.75
2024-05-09T17:37:55.079Z,77.25
2024-05-09T17:40:30.703Z,78.76
2024-05-09T17:43:01.064Z,77.67
2024-05-09T17:45:27.567Z,78.17
2024-05-09T17:47:54.116Z,80.39
2024-05-09T17:50:27.483Z,81.10
2024-05-09T17:53:00.520Z,81.81
2024-05-09T17:55:27.230Z,81.77
2024-05-09T17:57:53.839Z,82.75
2024-05-09T18:00:29.023Z,84.74
2024-05-09T18:03:03.465Z,85.77
2024-05-09T18:05:30.196Z,86.64
2024-05-09T18:07:57.164Z,88.52
2024-05-09T18:10:29.935Z,86.76
2024-05-09T18:13:02.356Z,88.09
2024-05-09T18:15:28.998Z,90.07
2024-05-09T18:17:55.669Z,91.98
2024-05-09T18:20:32.623Z,92.67
2024-05-09T18:23:07.347Z,92.79
2024-05-09T18:25:34.070Z,93.68
2024-05-09T18:28:01.670Z,94.09
2024-05-09T18:30:34.185Z,95.32
2024-05-09T18:33:02.850Z,94.76
2024-05-09T18:35:29.658Z,94.14
2024-05-09T18:37:56.154Z,94.89
2024-05-09T18:40:31.237Z,94.15
2024-05-09T18:43:01.793Z,95.09
2024-05-09T18:45:28.528Z,94.70
2024-05-09T18:47:55.220Z,96.12
2024-05-09T18:50:31.689Z,95.86
2024-05-09T18:53:02.737Z,97.63
2024-05-09T18:55:29.664Z,98.98
2024-05-09T18:57:56.415Z,100.00
2024-05-09T19:00:31.561Z,100.00
2024-05-09T19:03:05.143Z,100.00
2024-05-09T19:05:32.753Z,100.00
2024-05-09T19:07:59.624Z,100.00
2024-05-09T19:10:29.283Z,100.00
2024-05-09T19:13:00.711Z,100.00
2024-05-09T19:15:27.424Z,100.00
2024-05-09T19:17:53.991Z,100.00
2024-05-09T19:20:28.490Z,100.00
2024-05-09T19:22:59.869Z,100.00
2024-05-09T19:25:26.360Z,100.00
2024-05-09T19:27:52.904Z,100.00
2024-05-09T19:30:29.297Z,100.00
2024-05-09T19:33:03.555Z,100.00
2024-05-09T19:35:30.355Z,100.00
2024-05-09T19:37:56.851Z,100.00
2024-05-09T19:40:29.153Z,100.00
2024-05-09T19:42:58.886Z,100.00
2024-05-09T19:45:25.481Z,100.00
2024-05-09T19:47:52.246Z,100.00
2024-05-09T19:50:26.713Z,100.00
2024-05-09T19:52:59.462Z,100.00
2024-05-09T19:55:26.254Z,100.00
2024-05-09T19:57:52.870Z,100.00
2024-05-09T20:00:26.057Z,100.00
2024-05-09T20:02:56.119Z,100.00
2024-05-09T20:05:23.333Z,100.00
2024-05-09T20:07:50.098Z,100.00
2024-05-09T20:10:23.430Z,100.00
2024-05-09T20:12:53.830Z,100.00
2024-05-09T20:15:20.366Z,100.00
2024-05-09T20:17:47.271Z,100.00
2024-05-09T20:20:24.466Z,100.00
2024-05-09T20:22:59.718Z,100.00
2024-05-09T20:25:26.230Z,100.00
2024-05-09T20:27:52.869Z,100.00
2024-05-09T20:30:25.578Z,100.00
2024-05-09T20:32:58.116Z,100.00
2024-05-09T20:35:26.244Z,100.00
2024-05-09T20:37:52.742Z,100.00
2024-05-09T20:40:26.078Z,100.00
2024-05-09T20:42:58.559Z,100.00
2024-05-09T20:45:25.082Z,100.00
2024-05-09T20:47:51.650Z,100.00
2024-05-09T20:50:28.415Z,100.00
2024-05-09T20:53:02.693Z,100.00
2024-05-09T20:55:30.020Z,100.00
2024-05-09T20:57:56.911Z,100.00
2024-05-09T21:00:30.265Z,100.00
2024-05-09T21:03:05.079Z,100.00
2024-05-09T21:05:31.914Z,100.00
2024-05-09T21:07:58.547Z,100.00
2024-05-09T21:12:52.825Z,100.00
2024-05-09T21:15:19.372Z,100.00
2024-05-09T21:17:45.959Z,100.00
2024-05-09T21:20:17.254Z,100.00
2024-05-09T21:22:47.186Z,100.00
2024-05-09T21:25:13.869Z,100.00
2024-05-09T21:27:40.567Z,100.00
2024-05-09T21:30:12.694Z,100.00
2024-05-09T21:32:42.432Z,100.00
2024-05-09T21:35:09.042Z,100.00
2024-05-09T21:37:35.549Z,100.00
2024-05-09T21:40:06.838Z,100.00
2024-05-09T21:42:35.577Z,100.00
2024-05-09T21:45:02.088Z,100.00
2024-05-09T21:47:28.800Z,100.00
2024-05-09T21:49:55.436Z,100.00
2024-05-09T21:52:21.999Z,100.00
2024-05-09T21:54:48.553Z,100.00
2024-05-09T21:57:15.153Z,100.00
2024-05-09T21:59:42.038Z,100.00
2024-05-09T22:02:08.898Z,100.00
2024-05-09T22:04:35.607Z,100.00
2024-05-09T22:07:04.554Z,100.00
2024-05-09T22:09:31.511Z,100.00
2024-05-09T22:11:58.219Z,100.00
2024-05-09T22:14:24.979Z,100.00
2024-05-09T22:16:51.480Z,100.00
2024-05-09T22:19:18.045Z,100.00
2024-05-09T22:21:44.632Z,100.00
2024-05-09T22:24:11.178Z,100.00
2024-05-09T22:26:37.658Z,100.00
2024-05-09T22:29:04.737Z,100.00
2024-05-09T22:31:31.236Z,100.00
2024-05-09T22:33:58.017Z,100.00
2024-05-09T22:36:24.681Z,100.00
2024-05-09T22:38:51.226Z,100.00
2024-05-09T22:41:17.702Z,100.00
2024-05-09T22:43:44.201Z,100.00
2024-05-09T22:46:10.757Z,100.00
2024-05-09T22:48:37.485Z,100.00
2024-05-09T22:51:04.183Z,100.00
2024-05-09T22:53:30.660Z,100.00
2024-05-09T22:55:57.159Z,100.00
2024-05-09T22:58:24.193Z,100.00
2024-05-09T23:00:51.042Z,100.00
2024-05-09T23:03:20.712Z,100.00
2024-05-09T23:05:47.558Z,100.00
2024-05-09T23:08:14.056Z,100.00
2024-05-09T23:10:40.701Z,100.00
2024-05-09T23:13:07.957Z,100.00
2024-05-09T23:15:35.681Z,100.00
2024-05-09T23:18:02.450Z,100.00
2024-05-09T23:20:36.359Z,100.00
2024-05-09T23:23:06.601Z,100.00
2024-05-09T23:25:33.340Z,100.00
2024-05-09T23:27:59.991Z,100.00
2024-05-09T23:30:36.534Z,100.00
2024-05-09T23:33:06.321Z,100.00
2024-05-09T23:35:32.965Z,100.00
2024-05-09T23:37:59.526Z,100.00
2024-05-09T23:40:36.920Z,100.00
2024-05-09T23:43:06.679Z,100.00
2024-05-09T23:45:33.509Z,100.00
2024-05-09T23:48:00.304Z,100.00
2024-05-09T23:50:34.114Z,100.00
2024-05-09T23:53:03.634Z,100.00
2024-05-09T23:55:31.303Z,100.00
2024-05-09T23:57:58.124Z,100.00
